createdAt,value
2022-08-22T04:04:09.388Z,98590.09
2022-08-22T04:08:58.749Z,98598.38
2022-08-22T04:13:29.904Z,98604.44
2022-08-22T04:18:02.309Z,98605.97
2022-08-22T04:22:33.333Z,98611.25
2022-08-22T04:26:55.754Z,98605.81
2022-08-22T04:31:17.587Z,98607.56
2022-08-22T04:35:42.764Z,98607.97
2022-08-22T04:40:03.001Z,98603.53
2022-08-22T04:44:17.589Z,98608.75
2022-08-22T04:48:42.317Z,98597.03
2022-08-22T04:53:09.391Z,98599.06
2022-08-22T04:58:00.359Z,98604.31
2022-08-22T05:02:20.366Z,98612.41
2022-08-22T05:06:37.723Z,98613.22
2022-08-22T05:10:51.886Z,98621.28
2022-08-22T05:15:13.586Z,98621.28
2022-08-22T05:19:32.366Z,98621.28
2022-08-22T05:23:49.513Z,98621.28
2022-08-22T05:28:33.778Z,98620.50
2022-08-22T05:33:03.384Z,98625.75
2022-08-22T05:37:24.075Z,98625.47
2022-08-22T05:41:39.107Z,98617.78
2022-08-22T05:45:51.208Z,98621.81
2022-08-22T05:50:02.796Z,98629.72
2022-08-22T05:54:20.050Z,98634.19
2022-08-22T05:58:43.562Z,98634.41
2022-08-22T06:03:04.267Z,98641.72
2022-08-22T06:07:35.040Z,98639.72
2022-08-22T06:12:05.097Z,98648.63
2022-08-22T06:16:39.214Z,98645.78
2022-08-22T06:21:02.384Z,98641.63
2022-08-22T06:25:21.869Z,98644.88
2022-08-22T06:29:40.256Z,98646.50
2022-08-22T06:34:03.926Z,98643.47
2022-08-22T06:38:16.142Z,98626.19
2022-08-22T06:42:32.440Z,98630.28
2022-08-22T06:46:47.613Z,98625.50
2022-08-22T06:50:59.839Z,98633.13
2022-08-22T06:55:11.739Z,98636.88
2022-08-22T06:59:28.946Z,98641.72
2022-08-22T07:03:46.114Z,98650.72
2022-08-22T07:07:58.042Z,98652.91
2022-08-22T07:12:19.411Z,98650.47
2022-08-22T07:16:55.147Z,98645.16
2022-08-22T07:21:08.422Z,98641.91
2022-08-22T07:25:21.346Z,98653.09
2022-08-22T07:29:49.606Z,98649.81
2022-08-22T07:34:07.159Z,98642.50
2022-08-22T07:38:35.641Z,98647.31
2022-08-22T07:42:54.727Z,98645.09
2022-08-22T07:47:16.385Z,98641.41
2022-08-22T07:51:53.147Z,98646.09
2022-08-22T07:56:07.371Z,98647.78
2022-08-22T08:00:21.299Z,98644.78
2022-08-22T08:04:40.189Z,98651.44
2022-08-22T08:08:53.434Z,98639.06
2022-08-22T08:13:11.530Z,98642.41
2022-08-22T08:17:31.506Z,98640.22
2022-08-22T08:21:53.522Z,98642.06
2022-08-22T08:26:23.123Z,98638.88
2022-08-22T08:30:36.790Z,98644.53
2022-08-22T08:34:48.469Z,98642.47
2022-08-22T08:39:19.152Z,98653.81
2022-08-22T08:43:43.389Z,98656.81
2022-08-22T08:48:03.809Z,98649.63
2022-08-22T08:52:38.703Z,98652.59
2022-08-22T08:57:09.071Z,98651.78
2022-08-22T09:01:44.737Z,98650.75
2022-08-22T09:06:25.235Z,98647.03
2022-08-22T09:11:09.987Z,98656.38
2022-08-22T09:15:31.768Z,98648.63
2022-08-22T09:20:17.808Z,98651.53
2022-08-22T09:24:56.015Z,98641.66
2022-08-22T09:29:22.989Z,98640.31
2022-08-22T09:33:44.303Z,98636.84
2022-08-22T09:38:11.203Z,98621.31
2022-08-22T09:42:29.630Z,98621.53
2022-08-22T09:46:49.931Z,98622.56
2022-08-22T09:51:31.550Z,98617.72
2022-08-22T09:55:55.913Z,98599.22
2022-08-22T10:00:23.258Z,98596.75
2022-08-22T10:04:56.260Z,98599.50
2022-08-22T10:09:31.433Z,98609.84
2022-08-22T10:13:57.248Z,98603.38
2022-08-22T10:18:35.563Z,98601.44
2022-08-22T10:23:11.925Z,98602.63
2022-08-22T10:27:49.546Z,98590.09
2022-08-22T10:32:26.977Z,98590.25
2022-08-22T10:36:45.074Z,98573.19
2022-08-22T10:41:09.428Z,98569.34
2022-08-22T10:45:36.253Z,98561.50
2022-08-22T10:49:56.672Z,98547.25
2022-08-22T10:54:32.708Z,98563.41
2022-08-22T10:58:56.040Z,98557.88
2022-08-22T11:03:25.799Z,98548.09
2022-08-22T11:08:14.820Z,98554.59
2022-08-22T11:12:36.094Z,98545.88
2022-08-22T11:16:59.670Z,98548.84
2022-08-22T11:21:33.447Z,98554.72
2022-08-22T11:26:05.176Z,98551.38
2022-08-22T11:30:29.225Z,98545.22
2022-08-22T11:35:13.834Z,98535.63
2022-08-22T11:39:45.287Z,98538.25
2022-08-22T11:44:50.198Z,98528.16
2022-08-22T11:49:20.999Z,98527.91
2022-08-22T11:53:45.221Z,98526.41
2022-08-22T11:58:20.854Z,98526.13
2022-08-22T12:02:45.509Z,98526.41
2022-08-22T12:07:20.187Z,98525.44
2022-08-22T12:11:59.774Z,98513.53
2022-08-22T12:16:30.010Z,98517.09
2022-08-22T12:21:01.830Z,98512.25
2022-08-22T12:25:30.956Z,98506.75
2022-08-22T12:30:05.262Z,98506.16
2022-08-22T12:34:34.994Z,98501.03
2022-08-22T12:39:07.753Z,98497.16
2022-08-22T12:43:42.665Z,98485.28
2022-08-22T12:48:16.347Z,98487.59
2022-08-22T12:52:49.617Z,98488.59
2022-08-22T12:57:35.097Z,98486.78
2022-08-22T13:01:50.410Z,98483.59
2022-08-22T13:06:07.827Z,98485.75
2022-08-22T13:10:31.376Z,98483.44
2022-08-22T13:14:46.082Z,98475.53
2022-08-22T13:19:07.665Z,98467.97
2022-08-22T13:23:26.602Z,98474.75
2022-08-22T13:27:51.793Z,98471.66
2022-08-22T13:32:04.422Z,98471.34
2022-08-22T13:36:21.433Z,98465.75
2022-08-22T13:40:35.656Z,98470.53
2022-08-22T13:44:53.862Z,98466.13
2022-08-22T13:49:09.896Z,98460.56
2022-08-22T13:53:50.071Z,98461.44
2022-08-22T13:58:34.362Z,98453.97
2022-08-22T14:03:05.669Z,98453.69
2022-08-22T14:07:32.657Z,98445.16
2022-08-22T14:11:50.353Z,98442.72
2022-08-22T14:16:06.541Z,98445.19
2022-08-22T14:20:33.492Z,98440.97
2022-08-22T14:24:55.877Z,98446.06
2022-08-22T14:29:14.173Z,98435.97
2022-08-22T14:33:35.006Z,98438.06
2022-08-22T14:37:51.886Z,98440.78
2022-08-22T14:42:12.029Z,98428.13
2022-08-22T14:46:53.029Z,98427.63
2022-08-22T14:51:10.426Z,98428.19
2022-08-22T14:55:26.950Z,98431.34
2022-08-22T14:59:52.197Z,98422.97
2022-08-22T15:04:16.516Z,98415.84
2022-08-22T15:08:34.959Z,98404.31
2022-08-22T15:12:51.348Z,98403.50
2022-08-22T15:17:06.410Z,98406.16
2022-08-22T15:21:24.522Z,98393.13
2022-08-22T15:25:41.133Z,98403.38
2022-08-22T15:29:57.057Z,98390.72
2022-08-22T15:34:43.620Z,98391.94
2022-08-22T15:39:16.610Z,98385.94
2022-08-22T15:43:35.872Z,98384.16
2022-08-22T15:47:52.523Z,98381.38
2022-08-22T15:52:08.432Z,98383.16
2022-08-22T15:56:27.246Z,98381.38
2022-08-22T16:01:02.693Z,98386.56
2022-08-22T16:05:14.752Z,98383.34
2022-08-22T16:09:50.109Z,98378.47
2022-08-22T16:14:22.226Z,98385.44
2022-08-22T16:18:33.844Z,98376.59
2022-08-22T16:23:08.937Z,98384.38
2022-08-22T16:27:25.921Z,98379.91
2022-08-22T16:31:56.250Z,98381.59
2022-08-22T16:36:20.606Z,98387.69
2022-08-22T16:40:47.182Z,98383.41
2022-08-22T16:45:05.214Z,98381.69
2022-08-22T16:49:39.027Z,98380.88
2022-08-22T16:54:10.345Z,98376.41
2022-08-22T16:58:50.152Z,98380.47
2022-08-22T17:03:18.119Z,98390.47
2022-08-22T17:07:44.902Z,98385.19
2022-08-22T17:12:02.016Z,98380.34
2022-08-22T17:16:41.263Z,98386.81
2022-08-22T17:21:17.593Z,98383.91
2022-08-22T17:25:36.091Z,98384.31
2022-08-22T17:30:07.068Z,98393.63
2022-08-22T17:34:40.018Z,98391.78
2022-08-22T17:39:35.276Z,98389.41
2022-08-22T17:43:55.631Z,98395.03
2022-08-22T17:48:12.871Z,98395.91
2022-08-22T17:52:36.464Z,98397.66
2022-08-22T17:57:00.437Z,98393.78
2022-08-22T18:01:43.866Z,98397.63
2022-08-22T18:06:05.867Z,98404.16
2022-08-22T18:10:17.389Z,98407.53
2022-08-22T18:14:52.619Z,98412.53
2022-08-22T18:19:12.358Z,98404.13
2022-08-22T18:23:39.741Z,98402.78
2022-08-22T18:28:06.365Z,98413.16
2022-08-22T18:32:36.050Z,98415.41
2022-08-22T18:37:01.660Z,98418.47
2022-08-22T18:41:38.286Z,98422.78
2022-08-22T18:45:50.391Z,98430.56
2022-08-22T18:50:32.591Z,98442.63
2022-08-22T18:55:10.045Z,98437.00
2022-08-22T19:00:09.021Z,98442.34
2022-08-22T19:05:17.964Z,98452.72
2022-08-22T19:09:58.167Z,98446.06
2022-08-22T19:14:24.061Z,98452.41
2022-08-22T19:18:54.142Z,98462.00
2022-08-22T19:23:33.601Z,98458.50
2022-08-22T19:28:05.847Z,98456.00
2022-08-22T19:32:45.165Z,98471.66
2022-08-22T19:37:33.314Z,98473.47
2022-08-22T19:41:53.062Z,98469.41
2022-08-22T19:46:14.805Z,98477.66
2022-08-22T19:50:31.824Z,98486.97
2022-08-22T19:55:09.328Z,98466.88
2022-08-22T19:59:39.706Z,98472.09
2022-08-22T20:04:08.496Z,98477.63
2022-08-22T20:08:35.666Z,98481.31
2022-08-22T20:13:05.474Z,98487.84
2022-08-22T20:17:25.422Z,98483.31
2022-08-22T20:21:39.137Z,98495.00
2022-08-22T20:25:52.952Z,98491.00
2022-08-22T20:30:17.897Z,98495.22
2022-08-22T20:34:36.427Z,98492.47
2022-08-22T20:38:55.426Z,98499.38
2022-08-22T20:43:40.571Z,98494.97
2022-08-22T20:47:52.404Z,98493.38
2022-08-22T20:52:26.175Z,98507.03
2022-08-22T20:56:52.994Z,98501.38
2022-08-22T21:01:06.961Z,98490.28
2022-08-22T21:05:22.451Z,98497.91
2022-08-22T21:10:06.414Z,98507.72
2022-08-22T21:14:26.241Z,98511.38
2022-08-22T21:18:41.665Z,98515.09
2022-08-22T21:22:53.227Z,98507.84
2022-08-22T21:27:06.669Z,98511.25
